createdAt,value
2017-09-27T00:02:54.158Z,"    0"
2017-09-27T00:07:50.087Z,"    0"
2017-09-27T00:12:46.491Z,"    0"
2017-09-27T00:17:42.590Z,"    0"
2017-09-27T00:22:38.546Z,"    0"
2017-09-27T00:27:35.092Z,"    0"
2017-09-27T00:32:30.684Z,"    0"
2017-09-27T00:37:26.338Z,"    0"
2017-09-27T00:42:22.380Z,"    0"
2017-09-27T00:47:18.330Z,"    0"
2017-09-27T00:52:15.760Z,"    0"
2017-09-27T00:57:13.327Z,"    0"
2017-09-27T01:02:08.408Z,"    0"
2017-09-27T01:07:05.500Z,"    0"
2017-09-27T01:12:00.926Z,"    0"
2017-09-27T01:16:57.732Z,"    0"
2017-09-27T01:21:53.464Z,"    0"
2017-09-27T01:26:49.669Z,"    0"
2017-09-27T01:31:45.543Z,"    0"
2017-09-27T01:36:41.330Z,"    0"
2017-09-27T01:41:37.499Z,"    0"
2017-09-27T01:46:34.352Z,"    0"
2017-09-27T01:51:30.810Z,"    0"
2017-09-27T01:56:26.733Z,"    0"
2017-09-27T02:01:23.899Z,"    0"
2017-09-27T02:06:19.554Z,"    0"
2017-09-27T02:11:15.609Z,"    0"
2017-09-27T02:16:11.364Z,"    0"
2017-09-27T02:21:07.467Z,"    0"
2017-09-27T02:26:03.320Z,"    0"
2017-09-27T02:31:01.143Z,"    0"
2017-09-27T02:35:56.467Z,"    0"
2017-09-27T02:40:53.356Z,"    0"
2017-09-27T02:45:48.946Z,"    0"
2017-09-27T02:50:44.860Z,"    0"
2017-09-27T02:55:40.776Z,"    0"
2017-09-27T03:00:36.896Z,"    0"
2017-09-27T03:05:32.789Z,"    0"
2017-09-27T03:10:28.508Z,"    0"
2017-09-27T03:15:24.048Z,"    0"
2017-09-27T03:20:20.245Z,"    0"
2017-09-27T03:25:16.300Z,"    0"
2017-09-27T03:30:12.025Z,"    0"
2017-09-27T03:35:08.020Z,"    0"
2017-09-27T03:40:03.920Z,"    0"
2017-09-27T03:45:00.805Z,"    0"
2017-09-27T03:49:56.440Z,"    0"
2017-09-27T03:54:52.329Z,"    0"
2017-09-27T03:59:48.278Z,"    0"
2017-09-27T04:04:45.306Z,"    0"
2017-09-27T04:09:40.923Z,"    0"
2017-09-27T04:14:36.773Z,"    0"
2017-09-27T04:19:32.424Z,"    0"
2017-09-27T04:24:30.194Z,"    0"
2017-09-27T04:29:25.376Z,"    0"
2017-09-27T04:34:21.389Z,"    0"
2017-09-27T04:39:19.040Z,"    0"
2017-09-27T04:44:14.624Z,"    0"
2017-09-27T04:49:11.452Z,"    0"
2017-09-27T04:54:07.869Z,"    0"
2017-09-27T04:59:03.741Z,"    4"
2017-09-27T05:04:00.621Z,"    4"
2017-09-27T05:08:55.864Z,"   12"
2017-09-27T05:13:52.156Z,"   20"
2017-09-27T05:18:48.689Z,"   40"
2017-09-27T05:23:44.535Z,"   72"
2017-09-27T05:28:40.523Z,"  116"
2017-09-27T05:33:36.399Z,"  168"
2017-09-27T05:38:32.179Z,"  232"
2017-09-27T05:43:27.737Z,"  300"
2017-09-27T05:48:24.590Z,"  324"
2017-09-27T05:53:21.299Z,"  444"
2017-09-27T05:58:16.726Z,"  520"
2017-09-27T06:03:12.212Z,"  564"
2017-09-27T06:08:08.952Z,"  600"
2017-09-27T06:13:04.963Z,"  648"
2017-09-27T06:18:00.850Z,"  724"
2017-09-27T06:22:56.945Z,"  856"
2017-09-27T06:27:53.298Z," 1008"
2017-09-27T06:32:49.294Z," 1128"
2017-09-27T06:37:45.085Z," 1180"
2017-09-27T06:42:41.936Z," 1244"
2017-09-27T06:47:38.553Z," 1316"
2017-09-27T06:52:34.893Z," 1512"
2017-09-27T06:57:32.282Z," 1692"
2017-09-27T07:02:29.053Z," 1892"
2017-09-27T07:07:25.468Z," 2020"
2017-09-27T07:12:21.699Z," 2000"
2017-09-27T07:17:18.450Z," 2032"
2017-09-27T07:22:14.179Z," 1924"
2017-09-27T07:27:11.145Z," 1876"
2017-09-27T07:32:07.741Z," 1824"
2017-09-27T07:37:03.342Z," 1892"
2017-09-27T07:41:59.271Z," 2040"
2017-09-27T07:46:55.030Z," 2500"
2017-09-27T07:51:51.257Z," 3268"
2017-09-27T07:56:47.359Z," 3564"
2017-09-27T08:01:43.543Z," 3668"
2017-09-27T08:06:39.467Z," 3860"
2017-09-27T08:11:35.330Z," 4664"
2017-09-27T08:16:31.316Z," 5496"
2017-09-27T08:21:27.307Z," 5596"
2017-09-27T08:26:24.534Z," 5792"
2017-09-27T08:31:20.812Z," 5792"
2017-09-27T08:36:17.083Z," 6128"
2017-09-27T08:41:12.676Z," 6320"
2017-09-27T08:46:10.369Z," 7412"
2017-09-27T08:51:07.314Z," 9680"
2017-09-27T08:56:04.330Z,12400
2017-09-27T09:01:00.777Z,14512
2017-09-27T09:05:56.907Z,13420
2017-09-27T09:10:54.058Z,12004
2017-09-27T09:15:50.560Z,12164
2017-09-27T09:20:47.352Z,10848
2017-09-27T09:25:42.736Z,12032
2017-09-27T09:30:39.086Z,11840
2017-09-27T09:35:34.901Z,11908
2017-09-27T09:40:31.775Z,10076
2017-09-27T09:45:27.673Z," 8376"
2017-09-27T09:50:23.549Z," 8848"
2017-09-27T09:55:20.308Z,10600
2017-09-27T10:00:16.360Z,13164
2017-09-27T10:05:12.771Z,12256
2017-09-27T10:10:08.770Z,13344
2017-09-27T10:15:05.140Z,14128
2017-09-27T10:20:01.150Z,13940
2017-09-27T10:24:57.601Z,10592
2017-09-27T10:29:54.216Z,11676
2017-09-27T10:34:50.083Z,11968
2017-09-27T10:39:46.944Z,12472
2017-09-27T10:44:43.548Z,13980
2017-09-27T10:49:40.832Z,18400
2017-09-27T10:54:37.600Z,29120
2017-09-27T10:59:34.452Z,37984
2017-09-27T11:04:31.191Z,37088
2017-09-27T11:09:27.708Z,39776
2017-09-27T11:14:24.167Z,41600
2017-09-27T11:19:20.722Z,22688
2017-09-27T11:24:16.580Z,40320
2017-09-27T11:29:12.451Z,36736
2017-09-27T11:34:08.192Z,31616
2017-09-27T11:39:04.473Z,27776
2017-09-27T11:44:01.048Z,27680
2017-09-27T11:48:56.590Z,24992
2017-09-27T11:53:53.554Z,10368
2017-09-27T11:58:48.754Z,10492
2017-09-27T12:03:44.513Z,11520
2017-09-27T12:08:40.377Z,16192
2017-09-27T12:13:36.262Z,16512
2017-09-27T12:18:33.021Z,15072
2017-09-27T12:23:29.147Z," 9372"
2017-09-27T12:28:25.332Z," 8956"
2017-09-27T12:33:20.503Z," 8748"
2017-09-27T12:38:16.253Z," 8496"
2017-09-27T12:43:11.780Z," 8116"
2017-09-27T12:48:07.511Z," 6820"
2017-09-27T12:53:04.334Z," 7428"
2017-09-27T12:58:00.198Z," 6708"
2017-09-27T13:02:55.761Z," 7048"
2017-09-27T13:07:53.575Z," 7236"
2017-09-27T13:12:50.545Z," 6228"
2017-09-27T13:17:47.236Z," 5468"
2017-09-27T13:22:42.758Z," 5784"
2017-09-27T13:27:38.721Z," 4936"
2017-09-27T13:32:34.989Z," 4284"
2017-09-27T13:37:31.060Z," 4300"
2017-09-27T13:42:28.053Z," 4776"
2017-09-27T13:47:23.861Z," 4312"
2017-09-27T13:52:19.486Z," 4588"
2017-09-27T13:57:15.869Z," 4680"
2017-09-27T14:02:12.686Z," 5380"
2017-09-27T14:07:09.525Z," 5452"
2017-09-27T14:12:05.185Z," 4568"
2017-09-27T14:17:01.025Z," 4636"
2017-09-27T14:21:57.946Z," 4044"
2017-09-27T14:26:53.432Z," 3368"
2017-09-27T14:31:49.260Z," 4420"
2017-09-27T14:36:45.513Z," 4520"
2017-09-27T14:41:42.422Z," 4172"
2017-09-27T14:46:38.462Z," 3964"
2017-09-27T14:51:35.638Z," 4720"
2017-09-27T14:56:31.442Z," 4984"
2017-09-27T15:01:28.455Z," 4616"
2017-09-27T15:06:25.330Z," 5160"
2017-09-27T15:11:22.185Z," 4276"
2017-09-27T15:16:18.859Z," 4564"
2017-09-27T15:21:15.651Z," 4892"
2017-09-27T15:26:11.200Z," 4420"
2017-09-27T15:31:07.003Z," 4176"
2017-09-27T15:36:02.923Z," 3580"
2017-09-27T15:40:58.512Z," 3212"
2017-09-27T15:45:55.213Z," 2736"
2017-09-27T15:50:50.829Z," 2664"
2017-09-27T15:55:46.174Z," 2400"
2017-09-27T16:00:42.026Z," 2156"
2017-09-27T16:05:37.799Z," 1932"
2017-09-27T16:10:33.979Z," 1740"
2017-09-27T16:15:30.813Z," 1612"
2017-09-27T16:20:26.375Z," 1452"
2017-09-27T16:25:22.982Z," 1240"
2017-09-27T16:30:20.143Z," 1048"
2017-09-27T16:35:15.641Z,"  900"
2017-09-27T16:40:12.291Z,"  780"
2017-09-27T16:45:09.871Z,"  680"
2017-09-27T16:50:06.364Z,"  580"
2017-09-27T16:55:01.729Z,"  488"
2017-09-27T16:59:57.617Z,"  396"
2017-09-27T17:04:53.729Z,"  304"
2017-09-27T17:09:49.359Z,"  220"
2017-09-27T17:14:45.132Z,"  140"
2017-09-27T17:19:41.188Z,"   88"
2017-09-27T17:24:37.708Z,"   44"
2017-09-27T17:29:33.554Z,"   20"
2017-09-27T17:34:29.196Z,"    8"
2017-09-27T17:39:24.825Z,"    0"
2017-09-27T17:44:20.460Z,"    0"
2017-09-27T17:49:16.119Z,"    0"
2017-09-27T17:54:12.340Z,"    0"
2017-09-27T17:59:08.155Z,"    0"
2017-09-27T18:04:04.139Z,"    0"
2017-09-27T18:09:00.023Z,"    0"
2017-09-27T18:13:55.863Z,"    0"
2017-09-27T18:18:51.538Z,"    0"
2017-09-27T18:23:47.323Z,"    0"
2017-09-27T18:28:43.200Z,"    0"
2017-09-27T18:33:39.018Z,"    0"
2017-09-27T18:38:34.844Z,"    0"
2017-09-27T18:43:30.633Z,"    0"
2017-09-27T18:48:26.496Z,"    0"
2017-09-27T18:53:23.454Z,"    0"
2017-09-27T18:58:19.142Z,"    0"
2017-09-27T19:03:16.006Z,"    0"
2017-09-27T19:08:11.479Z,"    0"
2017-09-27T19:13:07.250Z,"    0"
2017-09-27T19:18:03.051Z,"    0"
2017-09-27T19:22:58.943Z,"    0"
2017-09-27T19:27:54.888Z,"    0"
2017-09-27T19:32:50.682Z,"    0"
2017-09-27T19:37:47.637Z,"    0"
2017-09-27T19:42:44.096Z,"    0"
2017-09-27T19:47:40.504Z,"    0"
2017-09-27T19:52:36.090Z,"    0"
2017-09-27T19:57:33.710Z,"    0"
2017-09-27T20:02:30.977Z,"    0"
2017-09-27T20:07:26.450Z,"    0"
2017-09-27T20:12:21.979Z,"    0"
2017-09-27T20:17:17.771Z,"    0"
2017-09-27T20:22:13.748Z,"    0"
2017-09-27T20:27:09.363Z,"    0"
2017-09-27T20:32:05.366Z,"    0"
2017-09-27T20:37:02.379Z,"    0"
2017-09-27T20:41:57.499Z,"    0"
2017-09-27T20:46:54.364Z,"    0"
2017-09-27T20:51:49.904Z,"    0"
2017-09-27T20:56:48.404Z,"    0"
2017-09-27T21:01:43.706Z,"    0"
2017-09-27T21:06:39.748Z,"    0"
2017-09-27T21:11:36.768Z,"    0"
2017-09-27T21:16:32.501Z,"    0"
2017-09-27T21:21:28.249Z,"    0"
2017-09-27T21:26:24.550Z,"    0"
2017-09-27T21:31:21.296Z,"    0"
2017-09-27T21:36:16.666Z,"    0"
2017-09-27T21:41:12.353Z,"    0"
2017-09-27T21:46:08.177Z,"    0"
2017-09-27T21:51:03.813Z,"    0"
2017-09-27T21:55:59.898Z,"    0"
2017-09-27T22:00:55.830Z,"    0"
2017-09-27T22:05:51.604Z,"    0"
2017-09-27T22:10:47.331Z,"    0"
2017-09-27T22:15:44.674Z,"    0"
2017-09-27T22:20:40.154Z,"    0"
2017-09-27T22:25:37.952Z,"    0"
2017-09-27T22:30:35.179Z,"    0"
2017-09-27T22:35:31.317Z,"    0"
2017-09-27T22:40:27.487Z,"    0"
2017-09-27T22:45:23.179Z,"    0"
2017-09-27T22:50:18.729Z,"    0"
2017-09-27T22:55:15.294Z,"    0"
2017-09-27T23:00:12.129Z,"    0"
2017-09-27T23:05:07.501Z,"    0"
2017-09-27T23:10:03.352Z,"    0"
2017-09-27T23:14:58.929Z,"    0"
2017-09-27T23:19:55.086Z,"    0"
2017-09-27T23:24:51.795Z,"    0"
2017-09-27T23:29:47.393Z,"    0"
2017-09-27T23:34:43.178Z,"    0"
2017-09-27T23:39:39.653Z,"    0"
2017-09-27T23:44:36.281Z,"    0"
2017-09-27T23:49:32.236Z,"    0"
2017-09-27T23:54:28.230Z,"    0"
2017-09-27T23:59:23.966Z,"    0"
